sensor_id;sensor_type;location;lat;lon;timestamp;temperature;humidity
19862;DHT22;10093;48.148;8.542;2023-01-10T00:01:56;2.60;99.90
19862;DHT22;10093;48.148;8.542;2023-01-10T00:04:22;2.70;99.90
19862;DHT22;10093;48.148;8.542;2023-01-10T00:06:50;2.80;99.90
19862;DHT22;10093;48.148;8.542;2023-01-10T00:09:16;2.80;99.90
19862;DHT22;10093;48.148;8.542;2023-01-10T00:11:41;2.80;99.90
19862;DHT22;10093;48.148;8.542;2023-01-10T00:14:26;2.70;99.90
19862;DHT22;10093;48.148;8.542;2023-01-10T00:16:52;2.60;99.90
19862;DHT22;10093;48.148;8.542;2023-01-10T00:19:18;2.60;99.90
19862;DHT22;10093;48.148;8.542;2023-01-10T00:21:43;2.60;99.90
19862;DHT22;10093;48.148;8.542;2023-01-10T00:24:09;2.80;99.90
19862;DHT22;10093;48.148;8.542;2023-01-10T00:26:43;2.80;99.90
19862;DHT22;10093;48.148;8.542;2023-01-10T00:29:11;2.80;99.90
19862;DHT22;10093;48.148;8.542;2023-01-10T00:31:38;2.70;99.90
19862;DHT22;10093;48.148;8.542;2023-01-10T00:34:03;2.80;99.90
19862;DHT22;10093;48.148;8.542;2023-01-10T00:36:29;2.80;99.90
19862;DHT22;10093;48.148;8.542;2023-01-10T00:38:54;2.80;99.90
19862;DHT22;10093;48.148;8.542;2023-01-10T00:41:20;2.60;99.90
19862;DHT22;10093;48.148;8.542;2023-01-10T00:44:04;2.60;99.90
19862;DHT22;10093;48.148;8.542;2023-01-10T00:46:30;2.60;99.90
19862;DHT22;10093;48.148;8.542;2023-01-10T00:48:56;2.50;99.90
19862;DHT22;10093;48.148;8.542;2023-01-10T00:51:21;2.30;99.90
19862;DHT22;10093;48.148;8.542;2023-01-10T00:53:47;2.40;99.90
19862;DHT22;10093;48.148;8.542;2023-01-10T00:56:13;2.40;99.90
19862;DHT22;10093;48.148;8.542;2023-01-10T00:58:38;2.50;99.90
19862;DHT22;10093;48.148;8.542;2023-01-10T01:01:04;2.30;99.90
19862;DHT22;10093;48.148;8.542;2023-01-10T01:03:29;2.40;99.90
19862;DHT22;10093;48.148;8.542;2023-01-10T01:05:55;2.30;99.90
19862;DHT22;10093;48.148;8.542;2023-01-10T01:08:20;2.20;99.90
19862;DHT22;10093;48.148;8.542;2023-01-10T01:10:46;2.20;99.90
19862;DHT22;10093;48.148;8.542;2023-01-10T01:13:16;2.30;99.90
19862;DHT22;10093;48.148;8.542;2023-01-10T01:15:42;2.40;99.90
19862;DHT22;10093;48.148;8.542;2023-01-10T01:18:08;2.50;99.90
19862;DHT22;10093;48.148;8.542;2023-01-10T01:20:34;2.50;99.90
19862;DHT22;10093;48.148;8.542;2023-01-10T01:22:59;2.50;99.90
19862;DHT22;10093;48.148;8.542;2023-01-10T01:25:25;2.40;99.90
19862;DHT22;10093;48.148;8.542;2023-01-10T01:27:50;2.30;99.90
19862;DHT22;10093;48.148;8.542;2023-01-10T01:30:16;2.50;99.90
19862;DHT22;10093;48.148;8.542;2023-01-10T01:32:41;2.60;99.90
19862;DHT22;10093;48.148;8.542;2023-01-10T01:35:07;2.60;99.90
19862;DHT22;10093;48.148;8.542;2023-01-10T01:37:34;2.60;99.90
19862;DHT22;10093;48.148;8.542;2023-01-10T01:40:00;2.40;99.90
19862;DHT22;10093;48.148;8.542;2023-01-10T01:42:26;2.40;99.90
19862;DHT22;10093;48.148;8.542;2023-01-10T01:45:53;2.50;99.90
19862;DHT22;10093;48.148;8.542;2023-01-10T01:47:50;2.50;99.90
19862;DHT22;10093;48.148;8.542;2023-01-10T01:50:21;2.60;99.90
19862;DHT22;10093;48.148;8.542;2023-01-10T01:52:52;2.50;99.90
19862;DHT22;10093;48.148;8.542;2023-01-10T01:55:18;2.40;99.90
19862;DHT22;10093;48.148;8.542;2023-01-10T01:57:44;2.40;99.90
19862;DHT22;10093;48.148;8.542;2023-01-10T02:00:11;2.30;99.90
19862;DHT22;10093;48.148;8.542;2023-01-10T02:02:38;2.20;99.90
19862;DHT22;10093;48.148;8.542;2023-01-10T02:05:08;2.10;99.90
19862;DHT22;10093;48.148;8.542;2023-01-10T02:07:35;2.20;99.90
19862;DHT22;10093;48.148;8.542;2023-01-10T02:12:30;2.20;99.90
19862;DHT22;10093;48.148;8.542;2023-01-10T02:14:56;2.10;99.90
19862;DHT22;10093;48.148;8.542;2023-01-10T02:17:22;2.10;99.90
19862;DHT22;10093;48.148;8.542;2023-01-10T02:38:04;2.60;99.90
19862;DHT22;10093;48.148;8.542;2023-01-10T02:43:09;2.60;99.90
19862;DHT22;10093;48.148;8.542;2023-01-10T02:48:08;2.50;99.90
19862;DHT22;10093;48.148;8.542;2023-01-10T03:00:41;2.40;99.90
19862;DHT22;10093;48.148;8.542;2023-01-10T03:10:36;2.30;99.90
19862;DHT22;10093;48.148;8.542;2023-01-10T03:13:18;2.30;99.90
19862;DHT22;10093;48.148;8.542;2023-01-10T03:15:45;2.20;99.90
19862;DHT22;10093;48.148;8.542;2023-01-10T03:18:16;2.20;99.90
19862;DHT22;10093;48.148;8.542;2023-01-10T03:20:43;2.20;99.90
19862;DHT22;10093;48.148;8.542;2023-01-10T03:23:10;2.20;99.90
19862;DHT22;10093;48.148;8.542;2023-01-10T03:25:37;2.20;99.90
19862;DHT22;10093;48.148;8.542;2023-01-10T03:28:11;2.20;99.90
19862;DHT22;10093;48.148;8.542;2023-01-10T03:33:04;2.20;99.90
19862;DHT22;10093;48.148;8.542;2023-01-10T03:35:33;2.30;99.90
19862;DHT22;10093;48.148;8.542;2023-01-10T03:38:06;2.40;99.90
19862;DHT22;10093;48.148;8.542;2023-01-10T03:41:15;2.30;99.90
19862;DHT22;10093;48.148;8.542;2023-01-10T03:46:13;2.30;99.90
19862;DHT22;10093;48.148;8.542;2023-01-10T03:48:46;2.20;99.90
19862;DHT22;10093;48.148;8.542;2023-01-10T03:51:12;2.40;99.90
19862;DHT22;10093;48.148;8.542;2023-01-10T03:53:38;2.30;99.90
19862;DHT22;10093;48.148;8.542;2023-01-10T03:56:04;2.40;99.90
19862;DHT22;10093;48.148;8.542;2023-01-10T03:58:30;2.40;99.90
19862;DHT22;10093;48.148;8.542;2023-01-10T04:00:56;2.40;99.90
19862;DHT22;10093;48.148;8.542;2023-01-10T04:03:21;2.40;99.90
19862;DHT22;10093;48.148;8.542;2023-01-10T04:05:47;2.30;99.90
19862;DHT22;10093;48.148;8.542;2023-01-10T04:08:12;2.40;99.90
19862;DHT22;10093;48.148;8.542;2023-01-10T04:10:38;2.30;99.90
19862;DHT22;10093;48.148;8.542;2023-01-10T04:13:03;2.30;99.90
19862;DHT22;10093;48.148;8.542;2023-01-10T04:15:29;2.10;99.90
19862;DHT22;10093;48.148;8.542;2023-01-10T04:17:54;2.20;99.90
19862;DHT22;10093;48.148;8.542;2023-01-10T04:20:21;2.30;99.90
19862;DHT22;10093;48.148;8.542;2023-01-10T04:22:46;2.40;99.90
19862;DHT22;10093;48.148;8.542;2023-01-10T04:25:14;2.40;99.90
19862;DHT22;10093;48.148;8.542;2023-01-10T04:27:40;2.40;99.90
19862;DHT22;10093;48.148;8.542;2023-01-10T04:30:05;2.40;99.90
19862;DHT22;10093;48.148;8.542;2023-01-10T04:32:31;2.40;99.90
19862;DHT22;10093;48.148;8.542;2023-01-10T04:34:56;2.40;99.90
19862;DHT22;10093;48.148;8.542;2023-01-10T04:37:22;2.40;99.90
19862;DHT22;10093;48.148;8.542;2023-01-10T04:39:47;2.30;99.90
19862;DHT22;10093;48.148;8.542;2023-01-10T04:42:13;2.30;99.90
19862;DHT22;10093;48.148;8.542;2023-01-10T04:44:40;2.20;99.90
19862;DHT22;10093;48.148;8.542;2023-01-10T04:47:05;2.10;99.90
19862;DHT22;10093;48.148;8.542;2023-01-10T04:49:31;1.90;99.90
19862;DHT22;10093;48.148;8.542;2023-01-10T04:51:56;1.80;99.90
19862;DHT22;10093;48.148;8.542;2023-01-10T04:54:22;1.70;99.90
19862;DHT22;10093;48.148;8.542;2023-01-10T04:56:48;1.50;99.90
19862;DHT22;10093;48.148;8.542;2023-01-10T04:59:13;1.30;99.90
19862;DHT22;10093;48.148;8.542;2023-01-10T05:01:39;1.30;99.90
19862;DHT22;10093;48.148;8.542;2023-01-10T05:04:05;1.50;99.90
19862;DHT22;10093;48.148;8.542;2023-01-10T05:06:31;1.60;99.90
19862;DHT22;10093;48.148;8.542;2023-01-10T05:08:56;1.70;99.90
19862;DHT22;10093;48.148;8.542;2023-01-10T05:11:22;1.70;99.90
19862;DHT22;10093;48.148;8.542;2023-01-10T05:13:47;1.70;99.90
19862;DHT22;10093;48.148;8.542;2023-01-10T05:16:13;1.80;99.90
19862;DHT22;10093;48.148;8.542;2023-01-10T05:18:38;1.90;99.90
19862;DHT22;10093;48.148;8.542;2023-01-10T05:21:05;1.90;99.90
19862;DHT22;10093;48.148;8.542;2023-01-10T05:23:31;1.90;99.90
19862;DHT22;10093;48.148;8.542;2023-01-10T05:25:56;2.00;99.90
19862;DHT22;10093;48.148;8.542;2023-01-10T05:28:22;2.10;99.90
19862;DHT22;10093;48.148;8.542;2023-01-10T05:30:47;2.10;99.90
19862;DHT22;10093;48.148;8.542;2023-01-10T05:33:13;2.10;99.90
19862;DHT22;10093;48.148;8.542;2023-01-10T05:35:39;2.10;99.90
19862;DHT22;10093;48.148;8.542;2023-01-10T05:38:04;2.00;99.90
19862;DHT22;10093;48.148;8.542;2023-01-10T05:40:30;2.00;99.90
19862;DHT22;10093;48.148;8.542;2023-01-10T05:42:55;2.00;99.90
19862;DHT22;10093;48.148;8.542;2023-01-10T05:45:21;2.00;99.90
19862;DHT22;10093;48.148;8.542;2023-01-10T05:47:46;2.00;99.90
19862;DHT22;10093;48.148;8.542;2023-01-10T05:50:11;2.00;99.90
19862;DHT22;10093;48.148;8.542;2023-01-10T05:52:37;2.00;99.90
19862;DHT22;10093;48.148;8.542;2023-01-10T05:55:03;1.80;99.90
19862;DHT22;10093;48.148;8.542;2023-01-10T05:57:28;1.80;99.90
19862;DHT22;10093;48.148;8.542;2023-01-10T05:59:54;1.70;99.90
19862;DHT22;10093;48.148;8.542;2023-01-10T06:02:19;1.70;99.90
19862;DHT22;10093;48.148;8.542;2023-01-10T06:04:45;1.60;99.90
19862;DHT22;10093;48.148;8.542;2023-01-10T06:07:10;1.60;99.90
19862;DHT22;10093;48.148;8.542;2023-01-10T06:09:35;1.60;99.90
19862;DHT22;10093;48.148;8.542;2023-01-10T06:12:01;1.60;99.90
19862;DHT22;10093;48.148;8.542;2023-01-10T06:14:26;1.50;99.90
19862;DHT22;10093;48.148;8.542;2023-01-10T06:16:52;1.50;99.90
19862;DHT22;10093;48.148;8.542;2023-01-10T06:19:17;1.50;99.90
19862;DHT22;10093;48.148;8.542;2023-01-10T06:21:43;1.60;99.90
19862;DHT22;10093;48.148;8.542;2023-01-10T06:24:08;1.60;99.90
19862;DHT22;10093;48.148;8.542;2023-01-10T06:26:34;1.60;99.90
19862;DHT22;10093;48.148;8.542;2023-01-10T06:28:59;1.60;99.90
19862;DHT22;10093;48.148;8.542;2023-01-10T06:31:25;1.50;99.90
19862;DHT22;10093;48.148;8.542;2023-01-10T06:33:51;1.60;99.90
19862;DHT22;10093;48.148;8.542;2023-01-10T06:36:17;1.60;99.90
19862;DHT22;10093;48.148;8.542;2023-01-10T06:38:43;1.50;99.90
19862;DHT22;10093;48.148;8.542;2023-01-10T06:41:08;1.50;99.90
19862;DHT22;10093;48.148;8.542;2023-01-10T06:43:40;1.50;99.90
19862;DHT22;10093;48.148;8.542;2023-01-10T06:46:06;1.50;99.90
19862;DHT22;10093;48.148;8.542;2023-01-10T06:48:37;1.40;99.90
19862;DHT22;10093;48.148;8.542;2023-01-10T06:51:03;1.50;99.90
19862;DHT22;10093;48.148;8.542;2023-01-10T06:53:29;1.40;99.90
19862;DHT22;10093;48.148;8.542;2023-01-10T06:55:54;1.40;99.90
19862;DHT22;10093;48.148;8.542;2023-01-10T06:58:21;1.40;99.90
19862;DHT22;10093;48.148;8.542;2023-01-10T07:00:47;1.40;99.90
19862;DHT22;10093;48.148;8.542;2023-01-10T07:03:12;1.30;99.90
19862;DHT22;10093;48.148;8.542;2023-01-10T07:05:38;1.40;99.90
19862;DHT22;10093;48.148;8.542;2023-01-10T07:08:03;1.30;99.90
19862;DHT22;10093;48.148;8.542;2023-01-10T07:10:29;1.40;99.90
19862;DHT22;10093;48.148;8.542;2023-01-10T07:12:54;1.50;99.90
19862;DHT22;10093;48.148;8.542;2023-01-10T07:15:20;1.60;99.90
19862;DHT22;10093;48.148;8.542;2023-01-10T07:17:45;1.50;99.90
19862;DHT22;10093;48.148;8.542;2023-01-10T07:20:11;1.40;99.90
19862;DHT22;10093;48.148;8.542;2023-01-10T07:22:36;1.40;99.90
19862;DHT22;10093;48.148;8.542;2023-01-10T07:25:02;1.50;99.90
19862;DHT22;10093;48.148;8.542;2023-01-10T07:27:29;1.50;99.90
19862;DHT22;10093;48.148;8.542;2023-01-10T07:29:55;1.40;99.90
19862;DHT22;10093;48.148;8.542;2023-01-10T07:32:20;1.30;99.90
19862;DHT22;10093;48.148;8.542;2023-01-10T07:34:46;1.40;99.90
19862;DHT22;10093;48.148;8.542;2023-01-10T07:37:11;1.50;99.90
19862;DHT22;10093;48.148;8.542;2023-01-10T07:39:36;1.60;99.90
19862;DHT22;10093;48.148;8.542;2023-01-10T07:42:02;1.70;99.90
19862;DHT22;10093;48.148;8.542;2023-01-10T07:44:28;1.80;99.90
19862;DHT22;10093;48.148;8.542;2023-01-10T07:46:53;1.90;99.90
19862;DHT22;10093;48.148;8.542;2023-01-10T07:49:19;1.90;99.90
19862;DHT22;10093;48.148;8.542;2023-01-10T07:51:44;2.10;99.90
19862;DHT22;10093;48.148;8.542;2023-01-10T07:54:10;1.90;99.90
19862;DHT22;10093;48.148;8.542;2023-01-10T07:56:36;2.00;99.90
19862;DHT22;10093;48.148;8.542;2023-01-10T07:59:02;2.00;99.90
19862;DHT22;10093;48.148;8.542;2023-01-10T08:01:27;1.90;99.90
19862;DHT22;10093;48.148;8.542;2023-01-10T08:03:55;1.80;99.90
19862;DHT22;10093;48.148;8.542;2023-01-10T08:06:20;1.50;99.90
19862;DHT22;10093;48.148;8.542;2023-01-10T08:08:46;1.40;99.90
19862;DHT22;10093;48.148;8.542;2023-01-10T08:11:11;1.50;99.90
19862;DHT22;10093;48.148;8.542;2023-01-10T08:13:37;1.30;99.90
19862;DHT22;10093;48.148;8.542;2023-01-10T08:16:03;1.10;99.90
19862;DHT22;10093;48.148;8.542;2023-01-10T08:18:29;1.00;99.90
19862;DHT22;10093;48.148;8.542;2023-01-10T08:20:55;0.90;99.90
19862;DHT22;10093;48.148;8.542;2023-01-10T08:23:20;0.90;99.90
19862;DHT22;10093;48.148;8.542;2023-01-10T08:25:46;0.90;99.90
19862;DHT22;10093;48.148;8.542;2023-01-10T08:28:12;1.10;99.90
19862;DHT22;10093;48.148;8.542;2023-01-10T08:30:37;1.20;99.90
19862;DHT22;10093;48.148;8.542;2023-01-10T08:33:04;1.40;99.90
19862;DHT22;10093;48.148;8.542;2023-01-10T08:35:29;1.30;99.90
19862;DHT22;10093;48.148;8.542;2023-01-10T08:37:58;1.20;99.90
19862;DHT22;10093;48.148;8.542;2023-01-10T08:40:24;1.20;99.90
19862;DHT22;10093;48.148;8.542;2023-01-10T08:42:57;2.00;99.90
19862;DHT22;10093;48.148;8.542;2023-01-10T08:45:22;4.00;99.90
19862;DHT22;10093;48.148;8.542;2023-01-10T08:47:48;6.30;99.90
19862;DHT22;10093;48.148;8.542;2023-01-10T08:50:13;8.70;99.90
19862;DHT22;10093;48.148;8.542;2023-01-10T08:52:39;8.50;99.90
19862;DHT22;10093;48.148;8.542;2023-01-10T08:55:04;8.60;99.90
19862;DHT22;10093;48.148;8.542;2023-01-10T08:57:30;8.20;99.90
19862;DHT22;10093;48.148;8.542;2023-01-10T08:59:56;7.20;99.90
19862;DHT22;10093;48.148;8.542;2023-01-10T09:02:22;7.00;99.90
19862;DHT22;10093;48.148;8.542;2023-01-10T09:04:47;7.00;99.90
19862;DHT22;10093;48.148;8.542;2023-01-10T09:07:13;5.50;99.90
19862;DHT22;10093;48.148;8.542;2023-01-10T09:09:38;4.50;99.90
19862;DHT22;10093;48.148;8.542;2023-01-10T09:12:04;3.70;99.90
19862;DHT22;10093;48.148;8.542;2023-01-10T09:14:49;3.60;99.90
19862;DHT22;10093;48.148;8.542;2023-01-10T09:17:15;3.20;99.90
19862;DHT22;10093;48.148;8.542;2023-01-10T09:19:40;2.90;99.90
19862;DHT22;10093;48.148;8.542;2023-01-10T09:22:06;2.90;99.90
19862;DHT22;10093;48.148;8.542;2023-01-10T09:24:31;3.00;99.90
19862;DHT22;10093;48.148;8.542;2023-01-10T09:26:57;3.50;99.90
19862;DHT22;10093;48.148;8.542;2023-01-10T09:29:22;3.60;99.90
19862;DHT22;10093;48.148;8.542;2023-01-10T09:31:48;3.60;99.90
19862;DHT22;10093;48.148;8.542;2023-01-10T09:34:13;3.60;99.90
19862;DHT22;10093;48.148;8.542;2023-01-10T09:36:39;3.70;99.90
19862;DHT22;10093;48.148;8.542;2023-01-10T09:39:04;3.80;99.90
19862;DHT22;10093;48.148;8.542;2023-01-10T09:41:37;3.90;99.90
19862;DHT22;10093;48.148;8.542;2023-01-10T09:44:23;3.80;99.90
19862;DHT22;10093;48.148;8.542;2023-01-10T09:50:02;3.80;99.90
19862;DHT22;10093;48.148;8.542;2023-01-10T09:52:08;3.80;99.90
19862;DHT22;10093;48.148;8.542;2023-01-10T09:54:39;3.70;99.90
19862;DHT22;10093;48.148;8.542;2023-01-10T09:57:07;3.80;99.90
19862;DHT22;10093;48.148;8.542;2023-01-10T09:59:37;3.70;99.90
19862;DHT22;10093;48.148;8.542;2023-01-10T10:02:13;3.60;99.90
19862;DHT22;10093;48.148;8.542;2023-01-10T10:04:41;3.60;99.90
19862;DHT22;10093;48.148;8.542;2023-01-10T10:07:11;3.80;99.90
19862;DHT22;10093;48.148;8.542;2023-01-10T10:09:37;3.80;99.90
19862;DHT22;10093;48.148;8.542;2023-01-10T10:19:23;4.00;99.90
19862;DHT22;10093;48.148;8.542;2023-01-10T10:26:56;4.60;99.90
19862;DHT22;10093;48.148;8.542;2023-01-10T10:29:33;4.70;99.90
19862;DHT22;10093;48.148;8.542;2023-01-10T10:34:33;6.50;99.90
19862;DHT22;10093;48.148;8.542;2023-01-10T10:37:24;7.40;99.90
19862;DHT22;10093;48.148;8.542;2023-01-10T10:39:49;8.00;99.90
19862;DHT22;10093;48.148;8.542;2023-01-10T10:42:16;8.40;99.90
19862;DHT22;10093;48.148;8.542;2023-01-10T10:47:17;8.70;99.90
19862;DHT22;10093;48.148;8.542;2023-01-10T10:52:16;9.20;99.90
19862;DHT22;10093;48.148;8.542;2023-01-10T10:54:44;8.00;99.90
19862;DHT22;10093;48.148;8.542;2023-01-10T10:57:10;6.40;99.90
19862;DHT22;10093;48.148;8.542;2023-01-10T10:59:36;5.60;99.90
19862;DHT22;10093;48.148;8.542;2023-01-10T11:02:01;5.20;99.90
19862;DHT22;10093;48.148;8.542;2023-01-10T11:04:27;4.70;99.90
19862;DHT22;10093;48.148;8.542;2023-01-10T11:06:53;4.60;99.90
19862;DHT22;10093;48.148;8.542;2023-01-10T11:09:20;4.80;99.90
19862;DHT22;10093;48.148;8.542;2023-01-10T11:12:05;5.50;99.90
19862;DHT22;10093;48.148;8.542;2023-01-10T11:14:43;6.10;99.90
19862;DHT22;10093;48.148;8.542;2023-01-10T11:20:15;5.70;99.90
19862;DHT22;10093;48.148;8.542;2023-01-10T11:22:47;5.40;99.90
19862;DHT22;10093;48.148;8.542;2023-01-10T11:25:14;6.70;99.90
19862;DHT22;10093;48.148;8.542;2023-01-10T11:27:45;7.70;99.90
19862;DHT22;10093;48.148;8.542;2023-01-10T11:30:16;7.40;99.90
19862;DHT22;10093;48.148;8.542;2023-01-10T11:32:50;7.10;99.90
19862;DHT22;10093;48.148;8.542;2023-01-10T11:35:21;7.60;99.90
19862;DHT22;10093;48.148;8.542;2023-01-10T11:37:59;8.40;99.90
19862;DHT22;10093;48.148;8.542;2023-01-10T11:40:25;7.50;99.90
19862;DHT22;10093;48.148;8.542;2023-01-10T11:42:52;6.80;99.90
19862;DHT22;10093;48.148;8.542;2023-01-10T11:47:48;7.40;99.90
19862;DHT22;10093;48.148;8.542;2023-01-10T11:50:24;7.00;99.90
19862;DHT22;10093;48.148;8.542;2023-01-10T11:52:51;6.60;99.90
19862;DHT22;10093;48.148;8.542;2023-01-10T11:55:20;6.80;99.90
19862;DHT22;10093;48.148;8.542;2023-01-10T11:57:53;7.20;99.90
19862;DHT22;10093;48.148;8.542;2023-01-10T12:00:19;7.40;99.90
19862;DHT22;10093;48.148;8.542;2023-01-10T12:02:45;7.20;99.90
19862;DHT22;10093;48.148;8.542;2023-01-10T12:05:12;6.50;99.90
19862;DHT22;10093;48.148;8.542;2023-01-10T12:07:55;6.40;99.90
19862;DHT22;10093;48.148;8.542;2023-01-10T12:10:22;6.10;99.90
19862;DHT22;10093;48.148;8.542;2023-01-10T12:12:55;5.90;99.90
19862;DHT22;10093;48.148;8.542;2023-01-10T12:17:48;5.40;99.90
19862;DHT22;10093;48.148;8.542;2023-01-10T12:20:14;5.30;99.90
19862;DHT22;10093;48.148;8.542;2023-01-10T12:22:50;5.10;99.90
19862;DHT22;10093;48.148;8.542;2023-01-10T12:25:26;5.20;99.90
19862;DHT22;10093;48.148;8.542;2023-01-10T12:27:52;5.00;99.90
19862;DHT22;10093;48.148;8.542;2023-01-10T12:31:01;4.80;99.90
19862;DHT22;10093;48.148;8.542;2023-01-10T12:33:15;4.80;99.90
19862;DHT22;10093;48.148;8.542;2023-01-10T12:38:15;4.70;99.90
19862;DHT22;10093;48.148;8.542;2023-01-10T12:40:48;4.50;99.90
19862;DHT22;10093;48.148;8.542;2023-01-10T12:43:20;4.50;99.90
19862;DHT22;10093;48.148;8.542;2023-01-10T12:46:17;5.00;99.90
19862;DHT22;10093;48.148;8.542;2023-01-10T12:48:46;6.40;99.90
19862;DHT22;10093;48.148;8.542;2023-01-10T12:51:14;8.10;99.90
19862;DHT22;10093;48.148;8.542;2023-01-10T12:53:52;8.30;99.90
19862;DHT22;10093;48.148;8.542;2023-01-10T12:56:18;7.10;99.90
19862;DHT22;10093;48.148;8.542;2023-01-10T12:58:52;6.30;99.90
19862;DHT22;10093;48.148;8.542;2023-01-10T13:01:21;5.60;99.90
19862;DHT22;10093;48.148;8.542;2023-01-10T13:03:49;5.50;99.90
19862;DHT22;10093;48.148;8.542;2023-01-10T13:06:22;5.50;99.90
19862;DHT22;10093;48.148;8.542;2023-01-10T13:08:49;5.30;99.90
19862;DHT22;10093;48.148;8.542;2023-01-10T13:11:15;5.10;99.90
19862;DHT22;10093;48.148;8.542;2023-01-10T13:13:44;5.30;99.90
19862;DHT22;10093;48.148;8.542;2023-01-10T13:18:56;5.40;99.90
19862;DHT22;10093;48.148;8.542;2023-01-10T13:21:22;6.10;99.90
19862;DHT22;10093;48.148;8.542;2023-01-10T13:23:48;7.20;99.90
19862;DHT22;10093;48.148;8.542;2023-01-10T13:26:15;7.70;99.90
19862;DHT22;10093;48.148;8.542;2023-01-10T13:28:51;7.30;99.90
19862;DHT22;10093;48.148;8.542;2023-01-10T13:31:32;8.00;99.90
19862;DHT22;10093;48.148;8.542;2023-01-10T13:34:04;8.30;99.90
19862;DHT22;10093;48.148;8.542;2023-01-10T13:37:17;7.70;99.90
19862;DHT22;10093;48.148;8.542;2023-01-10T13:39:33;7.90;99.90
19862;DHT22;10093;48.148;8.542;2023-01-10T14:05:59;6.20;99.90
19862;DHT22;10093;48.148;8.542;2023-01-10T14:08:26;5.90;99.90
19862;DHT22;10093;48.148;8.542;2023-01-10T14:11:04;5.60;99.90
19862;DHT22;10093;48.148;8.542;2023-01-10T14:13:30;5.50;99.90
19862;DHT22;10093;48.148;8.542;2023-01-10T14:15:55;5.50;99.90
19862;DHT22;10093;48.148;8.542;2023-01-10T14:18:22;5.40;99.90
19862;DHT22;10093;48.148;8.542;2023-01-10T14:21:04;5.60;99.90
19862;DHT22;10093;48.148;8.542;2023-01-10T14:25:56;5.30;99.90
19862;DHT22;10093;48.148;8.542;2023-01-10T14:28:26;5.20;99.90
19862;DHT22;10093;48.148;8.542;2023-01-10T14:30:55;5.10;99.90
19862;DHT22;10093;48.148;8.542;2023-01-10T14:33:33;5.00;99.90
19862;DHT22;10093;48.148;8.542;2023-01-10T14:36:07;4.90;99.90
19862;DHT22;10093;48.148;8.542;2023-01-10T14:38:34;4.40;99.90
19862;DHT22;10093;48.148;8.542;2023-01-10T14:41:04;4.10;99.90
19862;DHT22;10093;48.148;8.542;2023-01-10T14:43:36;4.10;99.90
19862;DHT22;10093;48.148;8.542;2023-01-10T14:46:04;4.20;99.90
19862;DHT22;10093;48.148;8.542;2023-01-10T14:51:24;4.00;99.90
19862;DHT22;10093;48.148;8.542;2023-01-10T14:53:54;4.20;99.90
19862;DHT22;10093;48.148;8.542;2023-01-10T14:56:25;4.30;99.90
19862;DHT22;10093;48.148;8.542;2023-01-10T14:58:51;4.30;99.90
19862;DHT22;10093;48.148;8.542;2023-01-10T15:01:20;4.30;99.90
19862;DHT22;10093;48.148;8.542;2023-01-10T15:03:46;4.10;99.90
19862;DHT22;10093;48.148;8.542;2023-01-10T15:06:12;4.00;99.90
19862;DHT22;10093;48.148;8.542;2023-01-10T15:08:37;4.00;99.90
19862;DHT22;10093;48.148;8.542;2023-01-10T15:11:04;3.90;99.90
19862;DHT22;10093;48.148;8.542;2023-01-10T15:13:32;3.90;99.90
19862;DHT22;10093;48.148;8.542;2023-01-10T15:15:59;3.80;99.90
19862;DHT22;10093;48.148;8.542;2023-01-10T15:21:00;3.70;99.90
19862;DHT22;10093;48.148;8.542;2023-01-10T15:23:33;3.60;99.90
19862;DHT22;10093;48.148;8.542;2023-01-10T15:26:00;3.60;99.90
19862;DHT22;10093;48.148;8.542;2023-01-10T15:28:27;3.60;99.90
19862;DHT22;10093;48.148;8.542;2023-01-10T15:30:54;3.50;99.90
19862;DHT22;10093;48.148;8.542;2023-01-10T15:33:26;3.60;99.90
19862;DHT22;10093;48.148;8.542;2023-01-10T15:35:53;3.50;99.90
19862;DHT22;10093;48.148;8.542;2023-01-10T15:38:19;3.50;99.90
19862;DHT22;10093;48.148;8.542;2023-01-10T15:40:51;3.50;99.90
19862;DHT22;10093;48.148;8.542;2023-01-10T15:45:51;3.40;99.90
19862;DHT22;10093;48.148;8.542;2023-01-10T15:51:02;3.30;99.90
19862;DHT22;10093;48.148;8.542;2023-01-10T15:56:13;3.30;99.90
19862;DHT22;10093;48.148;8.542;2023-01-10T15:58:42;3.30;99.90
19862;DHT22;10093;48.148;8.542;2023-01-10T16:01:11;3.30;99.90
19862;DHT22;10093;48.148;8.542;2023-01-10T16:03:38;3.20;99.90
19862;DHT22;10093;48.148;8.542;2023-01-10T16:06:13;3.10;99.90
19862;DHT22;10093;48.148;8.542;2023-01-10T16:08:46;3.10;99.90
19862;DHT22;10093;48.148;8.542;2023-01-10T16:11:45;3.00;99.90
19862;DHT22;10093;48.148;8.542;2023-01-10T16:14:22;2.90;99.90
19862;DHT22;10093;48.148;8.542;2023-01-10T16:16:48;2.80;99.90
19862;DHT22;10093;48.148;8.542;2023-01-10T16:19:13;2.80;99.90
19862;DHT22;10093;48.148;8.542;2023-01-10T16:21:40;2.70;99.90
19862;DHT22;10093;48.148;8.542;2023-01-10T16:24:06;2.70;99.90
19862;DHT22;10093;48.148;8.542;2023-01-10T16:26:37;2.60;99.90
19862;DHT22;10093;48.148;8.542;2023-01-10T16:29:03;2.60;99.90
19862;DHT22;10093;48.148;8.542;2023-01-10T16:31:28;2.60;99.90
19862;DHT22;10093;48.148;8.542;2023-01-10T16:33:54;2.50;99.90
19862;DHT22;10093;48.148;8.542;2023-01-10T16:36:19;2.50;99.90
19862;DHT22;10093;48.148;8.542;2023-01-10T16:38:45;2.50;99.90
19862;DHT22;10093;48.148;8.542;2023-01-10T16:41:11;2.40;99.90
19862;DHT22;10093;48.148;8.542;2023-01-10T16:43:55;2.40;99.90
19862;DHT22;10093;48.148;8.542;2023-01-10T16:46:21;2.40;99.90
19862;DHT22;10093;48.148;8.542;2023-01-10T16:48:47;2.50;99.90
19862;DHT22;10093;48.148;8.542;2023-01-10T16:51:26;2.50;99.90
19862;DHT22;10093;48.148;8.542;2023-01-10T16:53:52;2.60;99.90
19862;DHT22;10093;48.148;8.542;2023-01-10T16:56:19;2.60;99.90
19862;DHT22;10093;48.148;8.542;2023-01-10T16:58:46;2.60;99.90
19862;DHT22;10093;48.148;8.542;2023-01-10T17:01:18;2.60;99.90
19862;DHT22;10093;48.148;8.542;2023-01-10T17:03:44;2.60;99.90
19862;DHT22;10093;48.148;8.542;2023-01-10T17:06:10;2.60;99.90
19862;DHT22;10093;48.148;8.542;2023-01-10T17:08:36;2.60;99.90
19862;DHT22;10093;48.148;8.542;2023-01-10T17:11:02;2.60;99.90
19862;DHT22;10093;48.148;8.542;2023-01-10T17:13:30;2.60;99.90
19862;DHT22;10093;48.148;8.542;2023-01-10T17:15:56;2.70;99.90
19862;DHT22;10093;48.148;8.542;2023-01-10T17:18:23;2.70;99.90
19862;DHT22;10093;48.148;8.542;2023-01-10T17:20:50;2.70;99.90
19862;DHT22;10093;48.148;8.542;2023-01-10T17:23:16;2.70;99.90
19862;DHT22;10093;48.148;8.542;2023-01-10T17:25:41;2.70;99.90
19862;DHT22;10093;48.148;8.542;2023-01-10T17:28:08;2.70;99.90
19862;DHT22;10093;48.148;8.542;2023-01-10T17:30:44;2.70;99.90
19862;DHT22;10093;48.148;8.542;2023-01-10T17:33:09;2.60;99.90
19862;DHT22;10093;48.148;8.542;2023-01-10T17:35:42;2.70;99.90
19862;DHT22;10093;48.148;8.542;2023-01-10T17:38:10;2.70;99.90
19862;DHT22;10093;48.148;8.542;2023-01-10T17:40:39;2.60;99.90
19862;DHT22;10093;48.148;8.542;2023-01-10T17:43:05;2.60;99.90
19862;DHT22;10093;48.148;8.542;2023-01-10T17:45:31;2.60;99.90
19862;DHT22;10093;48.148;8.542;2023-01-10T17:47:56;2.60;99.90
19862;DHT22;10093;48.148;8.542;2023-01-10T17:50:22;2.60;99.90
19862;DHT22;10093;48.148;8.542;2023-01-10T17:52:48;2.50;99.90
19862;DHT22;10093;48.148;8.542;2023-01-10T17:55:13;2.50;99.90